createdAt,value
2016-12-21T00:00:16.988Z,0.79
2016-12-21T00:00:38.728Z,0.83
2016-12-21T00:01:00.468Z,0.85
2016-12-21T00:01:22.205Z,0.83
2016-12-21T00:01:46.673Z,0.83
2016-12-21T00:02:08.408Z,0.86
2016-12-21T00:02:30.159Z,0.85
2016-12-21T00:02:51.891Z,0.79
2016-12-21T00:03:13.626Z,0.70
2016-12-21T00:03:35.640Z,0.71
2016-12-21T00:03:57.377Z,0.62
2016-12-21T00:04:19.123Z,0.62
2016-12-21T00:04:40.869Z,0.65
2016-12-21T00:05:02.604Z,0.67
2016-12-21T00:05:24.366Z,0.59
2016-12-21T00:05:46.104Z,0.55
2016-12-21T00:06:07.861Z,0.64
2016-12-21T00:06:34.368Z,0.69
2016-12-21T00:06:57.125Z,0.75
2016-12-21T00:07:18.876Z,0.77
2016-12-21T00:07:40.622Z,0.78
2016-12-21T00:08:02.447Z,0.81
2016-12-21T00:08:24.174Z,0.80
2016-12-21T00:08:45.909Z,0.88
2016-12-21T00:09:07.655Z,0.91
2016-12-21T00:09:29.411Z,0.89
2016-12-21T00:09:53.885Z,0.84
2016-12-21T00:10:15.621Z,0.86
2016-12-21T00:10:42.135Z,0.88
2016-12-21T00:11:03.882Z,0.90
2016-12-21T00:11:25.636Z,0.89
2016-12-21T00:11:50.126Z,0.89
2016-12-21T00:12:11.864Z,0.89
2016-12-21T00:12:33.607Z,0.86
2016-12-21T00:12:55.353Z,0.79
2016-12-21T00:13:17.126Z,0.64
2016-12-21T00:13:38.863Z,0.54
2016-12-21T00:14:00.606Z,0.54
2016-12-21T00:14:22.343Z,0.64
2016-12-21T00:14:44.089Z,0.78
2016-12-21T00:15:05.827Z,0.93
2016-12-21T00:15:27.559Z,0.94
2016-12-21T00:15:49.287Z,0.88
2016-12-21T00:16:11.034Z,0.86
2016-12-21T00:16:32.783Z,0.87
2016-12-21T00:16:54.511Z,0.85
2016-12-21T00:17:16.257Z,0.88
2016-12-21T00:17:37.994Z,0.87
2016-12-21T00:17:59.729Z,0.86
2016-12-21T00:18:21.510Z,0.84
2016-12-21T00:18:43.246Z,0.82
2016-12-21T00:19:04.983Z,0.84
2016-12-21T00:19:26.721Z,0.87
2016-12-21T00:19:48.465Z,0.79
2016-12-21T00:20:10.226Z,0.82
2016-12-21T00:20:31.975Z,0.81
2016-12-21T00:20:53.728Z,0.86
2016-12-21T00:21:15.461Z,0.88
2016-12-21T00:21:37.233Z,0.86
2016-12-21T00:21:58.972Z,0.79
2016-12-21T00:22:20.701Z,0.86
2016-12-21T00:22:42.448Z,0.82
2016-12-21T00:23:04.184Z,0.76
2016-12-21T00:23:30.694Z,0.62
2016-12-21T00:23:52.450Z,0.66
2016-12-21T00:24:14.194Z,0.70
2016-12-21T00:24:35.970Z,0.69
2016-12-21T00:24:57.714Z,0.81
2016-12-21T00:25:19.458Z,0.89
2016-12-21T00:25:41.207Z,0.96
2016-12-21T00:26:02.945Z,0.94
2016-12-21T00:26:24.679Z,0.88
2016-12-21T00:26:46.434Z,0.87
2016-12-21T00:27:08.171Z,0.88
2016-12-21T00:27:29.917Z,0.88
2016-12-21T00:27:51.652Z,0.80
2016-12-21T00:28:13.391Z,0.82
2016-12-21T00:28:39.903Z,0.87
2016-12-21T00:29:01.639Z,0.84
2016-12-21T00:29:23.395Z,0.80
2016-12-21T00:29:45.132Z,0.78
2016-12-21T00:30:06.885Z,0.75
2016-12-21T00:30:28.654Z,0.69
2016-12-21T00:30:56.160Z,0.69
2016-12-21T00:31:17.905Z,0.62
2016-12-21T00:31:39.640Z,0.67
2016-12-21T00:32:01.383Z,0.72
2016-12-21T00:32:23.164Z,0.78
2016-12-21T00:32:44.902Z,0.82
2016-12-21T00:33:06.649Z,0.88
2016-12-21T00:33:28.396Z,0.87
2016-12-21T00:33:50.153Z,0.81
2016-12-21T00:34:12.886Z,0.81
2016-12-21T00:34:35.633Z,0.70
2016-12-21T00:34:57.374Z,0.68
2016-12-21T00:35:19.118Z,0.69
2016-12-21T00:35:40.849Z,0.67
2016-12-21T00:36:02.588Z,0.71
2016-12-21T00:36:24.330Z,0.73
2016-12-21T00:36:46.068Z,0.86
2016-12-21T00:37:07.804Z,0.99
2016-12-21T00:37:29.571Z,1.00
2016-12-21T00:37:51.323Z,1.00
2016-12-21T00:38:13.060Z,0.99
2016-12-21T00:38:34.806Z,0.94
2016-12-21T00:38:56.538Z,0.88
2016-12-21T00:39:18.278Z,0.91
2016-12-21T00:39:40.010Z,0.93
2016-12-21T00:40:02.812Z,0.90
2016-12-21T00:40:24.542Z,0.97
2016-12-21T00:40:46.281Z,0.95
2016-12-21T00:41:08.015Z,0.94
2016-12-21T00:41:29.751Z,0.89
2016-12-21T00:41:51.493Z,0.86
2016-12-21T00:42:13.229Z,0.80
2016-12-21T00:42:34.960Z,0.78
2016-12-21T00:42:56.699Z,0.70
2016-12-21T00:43:18.447Z,0.54
2016-12-21T00:43:40.231Z,0.52
2016-12-21T00:44:01.971Z,0.52
2016-12-21T00:44:23.716Z,0.51
2016-12-21T00:44:45.457Z,0.49
2016-12-21T00:45:08.203Z,0.53
2016-12-21T00:45:29.935Z,0.57
2016-12-21T00:45:51.674Z,0.60
2016-12-21T00:46:13.421Z,0.60
2016-12-21T00:46:35.147Z,0.65
2016-12-21T00:46:56.879Z,0.72
2016-12-21T00:47:18.628Z,0.76
2016-12-21T00:47:40.372Z,0.77
2016-12-21T00:48:02.119Z,0.77
2016-12-21T00:48:23.870Z,0.75
2016-12-21T00:48:45.617Z,0.71
2016-12-21T00:49:07.374Z,0.68
2016-12-21T00:49:29.141Z,0.74
2016-12-21T00:49:50.887Z,0.78
2016-12-21T00:50:12.635Z,0.74
2016-12-21T00:50:35.508Z,0.73
2016-12-21T00:50:57.235Z,0.80
2016-12-21T00:51:18.972Z,0.90
2016-12-21T00:51:40.704Z,0.95
2016-12-21T00:52:02.443Z,0.98
2016-12-21T00:52:24.177Z,0.99
2016-12-21T00:52:46.905Z,1.00
2016-12-21T00:53:08.644Z,0.98
2016-12-21T00:53:30.393Z,0.98
2016-12-21T00:53:52.182Z,0.94
2016-12-21T00:54:13.924Z,0.88
2016-12-21T00:54:35.666Z,0.84
2016-12-21T00:54:57.408Z,0.78
2016-12-21T00:55:19.279Z,0.83
2016-12-21T00:55:40.902Z,0.83
2016-12-21T00:56:02.642Z,0.86
2016-12-21T00:56:24.370Z,0.86
2016-12-21T00:56:46.139Z,0.84
2016-12-21T00:57:07.885Z,0.75
2016-12-21T00:57:29.616Z,0.74
2016-12-21T00:57:51.357Z,0.74
2016-12-21T00:58:13.101Z,0.74
2016-12-21T00:58:39.681Z,0.76
2016-12-21T00:59:01.403Z,0.83
2016-12-21T00:59:23.144Z,0.85
2016-12-21T00:59:44.887Z,0.87
2016-12-21T01:00:06.626Z,0.81
2016-12-21T01:00:29.364Z,0.82
2016-12-21T01:00:51.153Z,0.76
2016-12-21T01:01:12.955Z,0.83
2016-12-21T01:01:34.695Z,0.95
2016-12-21T01:01:56.435Z,0.93
2016-12-21T01:02:18.183Z,0.84
2016-12-21T01:02:39.925Z,0.76
2016-12-21T01:03:01.654Z,0.80
2016-12-21T01:03:23.401Z,0.80
2016-12-21T01:03:45.155Z,0.77
2016-12-21T01:04:06.913Z,0.74
2016-12-21T01:04:28.857Z,0.69
2016-12-21T01:04:50.612Z,0.66
2016-12-21T01:05:12.352Z,0.71
2016-12-21T01:05:34.111Z,0.81
2016-12-21T01:05:55.846Z,0.87
2016-12-21T01:06:17.579Z,0.97
2016-12-21T01:06:40.316Z,1.01
2016-12-21T01:07:02.060Z,1.01
2016-12-21T01:07:23.807Z,1.03
2016-12-21T01:07:45.556Z,1.01
2016-12-21T01:08:07.293Z,1.00
2016-12-21T01:08:29.034Z,0.97
2016-12-21T01:08:56.532Z,0.93
2016-12-21T01:09:18.268Z,0.89
2016-12-21T01:09:40.002Z,0.89
2016-12-21T01:10:01.734Z,0.90
2016-12-21T01:10:23.484Z,0.91
2016-12-21T01:10:45.215Z,0.92
2016-12-21T01:11:06.962Z,0.89
2016-12-21T01:11:28.698Z,0.90
2016-12-21T01:11:50.465Z,0.87
2016-12-21T01:12:12.198Z,0.84
2016-12-21T01:12:33.943Z,0.90
2016-12-21T01:12:55.689Z,0.94
2016-12-21T01:13:17.565Z,1.04
2016-12-21T01:13:39.347Z,1.04
2016-12-21T01:14:01.146Z,0.99
2016-12-21T01:14:22.883Z,1.03
2016-12-21T01:14:45.619Z,1.06
2016-12-21T01:15:08.354Z,1.09
2016-12-21T01:15:34.852Z,1.07
2016-12-21T01:15:56.594Z,1.08
2016-12-21T01:16:23.115Z,0.97
2016-12-21T01:16:44.858Z,0.96
2016-12-21T01:17:06.596Z,0.93
2016-12-21T01:17:28.331Z,0.95
2016-12-21T01:17:50.078Z,0.90
2016-12-21T01:18:11.811Z,0.81
2016-12-21T01:18:33.549Z,0.79
2016-12-21T01:18:55.283Z,0.83
2016-12-21T01:19:17.028Z,0.83
2016-12-21T01:19:38.761Z,0.83
2016-12-21T01:20:00.502Z,0.89
2016-12-21T01:20:22.343Z,0.97
2016-12-21T01:20:44.085Z,0.98
2016-12-21T01:21:06.823Z,0.98
2016-12-21T01:21:28.590Z,0.97
2016-12-21T01:21:50.344Z,1.03
2016-12-21T01:22:12.085Z,1.15
2016-12-21T01:22:33.817Z,1.10
2016-12-21T01:22:55.552Z,1.07
2016-12-21T01:23:17.292Z,1.06
2016-12-21T01:23:39.036Z,1.00
2016-12-21T01:24:00.760Z,0.98
2016-12-21T01:24:22.514Z,0.94
2016-12-21T01:24:44.251Z,0.98
2016-12-21T01:25:06.022Z,0.93
2016-12-21T01:25:27.766Z,0.93
2016-12-21T01:25:49.499Z,0.91
2016-12-21T01:26:11.234Z,0.93
2016-12-21T01:26:32.993Z,0.94
2016-12-21T01:27:21.250Z,0.93
2016-12-21T01:27:42.986Z,0.92
2016-12-21T01:28:07.683Z,0.95
2016-12-21T01:28:29.420Z,0.95
2016-12-21T01:28:51.162Z,0.98
2016-12-21T01:29:12.895Z,1.02
2016-12-21T01:29:34.640Z,1.06
2016-12-21T01:29:56.387Z,1.06
2016-12-21T01:30:18.119Z,1.06
2016-12-21T01:30:39.868Z,1.08
2016-12-21T01:31:01.614Z,1.16
2016-12-21T01:31:23.348Z,1.11
2016-12-21T01:31:45.099Z,1.12
2016-12-21T01:32:11.634Z,1.15
2016-12-21T01:32:33.378Z,1.16
2016-12-21T01:32:59.874Z,1.15
2016-12-21T01:33:21.619Z,1.21
2016-12-21T01:33:43.355Z,1.19
2016-12-21T01:34:05.094Z,1.15
2016-12-21T01:34:26.827Z,1.15
2016-12-21T01:34:48.575Z,1.16
2016-12-21T01:35:10.318Z,1.18
2016-12-21T01:35:32.054Z,1.16
2016-12-21T01:35:54.795Z,1.12
2016-12-21T01:36:16.538Z,1.17
2016-12-21T01:36:38.271Z,1.09
2016-12-21T01:37:04.779Z,1.06
2016-12-21T01:37:26.536Z,1.10
2016-12-21T01:37:48.279Z,1.11
2016-12-21T01:38:10.033Z,1.04
2016-12-21T01:38:31.774Z,0.99
2016-12-21T01:38:53.520Z,1.02
2016-12-21T01:39:15.276Z,0.98
2016-12-21T01:39:37.008Z,0.96
2016-12-21T01:39:58.779Z,0.94
2016-12-21T01:40:20.596Z,0.99
2016-12-21T01:40:42.343Z,0.98
2016-12-21T01:41:04.083Z,1.01
2016-12-21T01:41:25.851Z,1.11
2016-12-21T01:41:47.573Z,1.09
2016-12-21T01:42:09.313Z,1.12
2016-12-21T01:42:31.091Z,1.11
2016-12-21T01:42:52.844Z,1.12
2016-12-21T01:43:14.599Z,1.14
2016-12-21T01:43:36.335Z,1.08
2016-12-21T01:43:58.066Z,1.08
2016-12-21T01:44:19.804Z,1.09
2016-12-21T01:44:41.538Z,1.03
2016-12-21T01:45:03.374Z,1.09
2016-12-21T01:45:25.104Z,1.11
2016-12-21T01:45:46.835Z,1.12
2016-12-21T01:46:09.579Z,1.12
2016-12-21T01:46:31.325Z,1.16
2016-12-21T01:46:53.060Z,1.11
2016-12-21T01:47:14.800Z,1.11
2016-12-21T01:47:36.528Z,1.15
2016-12-21T01:47:58.291Z,1.17
2016-12-21T01:48:20.050Z,1.13
2016-12-21T01:48:41.777Z,1.12
2016-12-21T01:49:03.515Z,1.12
2016-12-21T01:49:25.320Z,1.14
2016-12-21T01:49:47.077Z,1.16
2016-12-21T01:50:08.816Z,1.14
2016-12-21T01:50:30.555Z,1.18
2016-12-21T01:50:52.297Z,1.11
2016-12-21T01:51:14.043Z,1.09
2016-12-21T01:51:35.777Z,1.08
2016-12-21T01:51:58.519Z,1.08
2016-12-21T01:52:20.260Z,1.04
2016-12-21T01:52:42.016Z,0.98
2016-12-21T01:53:03.757Z,1.03
2016-12-21T01:53:25.514Z,1.07
2016-12-21T01:53:47.258Z,1.09
2016-12-21T01:54:09.048Z,1.05
2016-12-21T01:54:30.808Z,1.03
2016-12-21T01:54:52.552Z,1.09
2016-12-21T01:55:14.314Z,1.17
2016-12-21T01:55:36.062Z,1.18
2016-12-21T01:55:57.807Z,1.17
2016-12-21T01:56:19.545Z,1.16
2016-12-21T01:56:41.272Z,1.08
2016-12-21T01:57:03.005Z,1.06
2016-12-21T01:57:24.746Z,1.04
2016-12-21T01:57:46.522Z,1.09
2016-12-21T01:58:08.260Z,1.01
2016-12-21T01:58:32.832Z,0.97
2016-12-21T01:58:54.570Z,0.95
2016-12-21T01:59:16.316Z,0.92
2016-12-21T01:59:38.073Z,0.86
2016-12-21T01:59:59.806Z,0.90
2016-12-21T02:00:21.569Z,0.91
2016-12-21T02:00:43.301Z,0.89
2016-12-21T02:01:05.054Z,0.94
2016-12-21T02:01:26.797Z,0.97
2016-12-21T02:01:48.531Z,0.99
2016-12-21T02:02:10.265Z,1.02
2016-12-21T02:02:31.999Z,1.04
2016-12-21T02:02:53.733Z,1.04
2016-12-21T02:03:15.460Z,1.12
2016-12-21T02:03:37.218Z,1.15
2016-12-21T02:03:58.949Z,1.14
2016-12-21T02:04:20.684Z,1.20
2016-12-21T02:04:42.432Z,1.20
2016-12-21T02:05:04.164Z,1.11
2016-12-21T02:05:25.908Z,0.98
2016-12-21T02:05:47.657Z,0.91
2016-12-21T02:06:09.395Z,0.90
2016-12-21T02:06:31.123Z,0.91
2016-12-21T02:06:52.862Z,0.89
2016-12-21T02:07:14.601Z,0.89
2016-12-21T02:07:36.352Z,0.95
2016-12-21T02:07:58.077Z,1.03
2016-12-21T02:08:19.811Z,0.99
2016-12-21T02:08:41.542Z,1.00
2016-12-21T02:09:03.275Z,1.05
2016-12-21T02:09:25.011Z,1.09
2016-12-21T02:09:47.747Z,1.12
2016-12-21T02:10:09.495Z,1.17
2016-12-21T02:10:31.228Z,1.03
2016-12-21T02:10:57.735Z,0.98
2016-12-21T02:11:19.496Z,0.97
2016-12-21T02:11:41.281Z,1.03
2016-12-21T02:12:03.017Z,1.02
2016-12-21T02:12:29.514Z,0.97
2016-12-21T02:12:51.246Z,0.95
2016-12-21T02:13:12.977Z,0.87
2016-12-21T02:13:34.725Z,0.87
2016-12-21T02:13:56.646Z,0.84
2016-12-21T02:14:18.418Z,0.84
2016-12-21T02:14:40.164Z,0.89
2016-12-21T02:15:01.923Z,0.88
2016-12-21T02:15:23.666Z,0.82
2016-12-21T02:15:45.393Z,0.83
2016-12-21T02:16:07.131Z,0.86
2016-12-21T02:16:28.876Z,0.84
2016-12-21T02:16:50.608Z,0.91
2016-12-21T02:17:12.346Z,0.95
2016-12-21T02:17:34.092Z,0.98
2016-12-21T02:17:55.827Z,0.97
2016-12-21T02:18:17.569Z,0.96
2016-12-21T02:18:39.322Z,0.93
2016-12-21T02:19:01.063Z,0.90
2016-12-21T02:19:49.328Z,0.84
2016-12-21T02:20:11.076Z,0.82
2016-12-21T02:20:42.341Z,0.87
2016-12-21T02:21:04.102Z,0.90
2016-12-21T02:21:25.844Z,0.87
2016-12-21T02:21:47.581Z,0.86
2016-12-21T02:22:09.311Z,0.83
2016-12-21T02:22:31.064Z,0.77
2016-12-21T02:22:52.843Z,0.81
2016-12-21T02:23:14.576Z,0.81
2016-12-21T02:23:36.313Z,0.73
2016-12-21T02:23:58.087Z,0.71
2016-12-21T02:24:19.828Z,0.84
2016-12-21T02:24:42.581Z,0.87
2016-12-21T02:25:04.318Z,0.95
2016-12-21T02:25:26.059Z,0.98
2016-12-21T02:25:47.811Z,0.93
2016-12-21T02:26:09.555Z,0.97
2016-12-21T02:26:31.299Z,0.98
2016-12-21T02:26:53.048Z,0.95
2016-12-21T02:27:14.786Z,0.95
2016-12-21T02:27:41.285Z,0.93
2016-12-21T02:28:03.024Z,0.92
2016-12-21T02:28:24.758Z,0.82
2016-12-21T02:28:46.499Z,0.82
2016-12-21T02:29:11.042Z,0.81
2016-12-21T02:29:32.799Z,0.76
2016-12-21T02:29:54.572Z,0.73
2016-12-21T02:30:21.075Z,0.71
2016-12-21T02:30:47.573Z,0.69
2016-12-21T02:31:09.311Z,0.74
2016-12-21T02:31:31.043Z,0.73
2016-12-21T02:31:52.787Z,0.77
2016-12-21T02:32:14.542Z,0.87
2016-12-21T02:32:36.279Z,0.91
2016-12-21T02:32:58.041Z,0.88
2016-12-21T02:33:19.770Z,0.83
2016-12-21T02:33:41.511Z,0.77
2016-12-21T02:34:03.248Z,0.76
2016-12-21T02:34:24.993Z,0.78
2016-12-21T02:34:51.495Z,0.68
2016-12-21T02:35:13.236Z,0.74
2016-12-21T02:35:34.970Z,0.77
2016-12-21T02:35:56.708Z,0.71
2016-12-21T02:36:18.440Z,0.75
2016-12-21T02:36:40.177Z,0.72
2016-12-21T02:37:02.935Z,0.73
2016-12-21T02:37:24.671Z,0.80
2016-12-21T02:37:46.406Z,0.83
2016-12-21T02:38:08.150Z,0.82
2016-12-21T02:38:29.893Z,0.80
2016-12-21T02:38:51.631Z,0.74
2016-12-21T02:39:13.366Z,0.72
2016-12-21T02:39:35.101Z,0.72
2016-12-21T02:39:56.859Z,0.72
2016-12-21T02:40:18.709Z,0.73
2016-12-21T02:40:40.443Z,0.79
2016-12-21T02:41:02.182Z,0.80
2016-12-21T02:41:23.929Z,0.85
2016-12-21T02:41:45.682Z,0.88
2016-12-21T02:42:12.195Z,0.86
2016-12-21T02:42:33.959Z,0.87
2016-12-21T02:42:58.364Z,0.81
2016-12-21T02:43:20.106Z,0.83
2016-12-21T02:43:41.853Z,0.82
2016-12-21T02:44:08.361Z,0.91
2016-12-21T02:44:30.095Z,0.97
2016-12-21T02:44:51.840Z,0.93
2016-12-21T02:45:13.588Z,0.91
2016-12-21T02:45:35.323Z,0.89
2016-12-21T02:45:57.053Z,0.84
2016-12-21T02:46:18.798Z,0.82
2016-12-21T02:46:45.303Z,0.76
2016-12-21T02:47:11.814Z,0.70
2016-12-21T02:47:33.583Z,0.70
2016-12-21T02:48:00.076Z,0.65
2016-12-21T02:48:26.614Z,0.61
2016-12-21T02:48:48.346Z,0.61
2016-12-21T02:49:10.084Z,0.63
2016-12-21T02:49:31.822Z,0.66
2016-12-21T02:49:53.567Z,0.67
2016-12-21T02:50:15.310Z,0.69
2016-12-21T02:50:37.047Z,0.62
2016-12-21T02:50:58.784Z,0.70
2016-12-21T02:51:20.516Z,0.76
2016-12-21T02:51:42.253Z,0.84
2016-12-21T02:52:03.984Z,0.86
2016-12-21T02:52:26.744Z,0.83
2016-12-21T02:52:48.478Z,0.84
2016-12-21T02:53:10.224Z,0.85
2016-12-21T02:54:03.232Z,0.78
2016-12-21T02:54:27.958Z,0.76
2016-12-21T02:54:49.707Z,0.77
2016-12-21T02:55:11.446Z,0.77
2016-12-21T02:55:34.178Z,0.78
2016-12-21T02:55:55.919Z,0.80
2016-12-21T02:56:17.674Z,0.80
2016-12-21T02:56:39.402Z,0.71
2016-12-21T02:57:01.137Z,0.67
2016-12-21T02:57:22.870Z,0.73
2016-12-21T02:57:44.606Z,0.76
2016-12-21T02:58:06.343Z,0.79
2016-12-21T02:58:29.084Z,0.80
2016-12-21T02:58:50.851Z,0.74
2016-12-21T02:59:12.605Z,0.64
2016-12-21T02:59:39.112Z,0.58
2016-12-21T03:00:00.847Z,0.65
2016-12-21T03:00:22.648Z,0.70
2016-12-21T03:00:44.376Z,0.68
2016-12-21T03:01:06.136Z,0.75
2016-12-21T03:01:27.870Z,0.75
2016-12-21T03:01:49.608Z,0.76
2016-12-21T03:02:11.351Z,0.86
2016-12-21T03:02:33.097Z,0.84
2016-12-21T03:02:54.834Z,0.87
2016-12-21T03:03:16.597Z,0.91
2016-12-21T03:03:38.348Z,0.92
2016-12-21T03:04:00.087Z,0.88
2016-12-21T03:04:21.837Z,0.86
2016-12-21T03:04:43.569Z,0.86
2016-12-21T03:05:05.321Z,0.86
2016-12-21T03:05:27.059Z,0.86
2016-12-21T03:06:15.316Z,0.77
2016-12-21T03:06:37.054Z,0.74
2016-12-21T03:06:58.790Z,0.74
2016-12-21T03:07:20.532Z,0.78
2016-12-21T03:07:42.276Z,0.84
2016-12-21T03:08:04.009Z,0.84
2016-12-21T03:08:25.749Z,0.90
2016-12-21T03:08:47.480Z,0.94
2016-12-21T03:09:09.241Z,0.93
2016-12-21T03:09:30.974Z,0.98
2016-12-21T03:09:52.727Z,1.03
2016-12-21T03:10:14.491Z,0.99
2016-12-21T03:10:36.231Z,0.93
2016-12-21T03:10:57.985Z,0.89
2016-12-21T03:11:19.735Z,0.93
2016-12-21T03:11:41.477Z,0.93
2016-12-21T03:12:03.209Z,0.92
2016-12-21T03:12:24.948Z,0.89
2016-12-21T03:12:46.674Z,0.89
2016-12-21T03:13:08.435Z,0.83
2016-12-21T03:13:34.939Z,0.75
2016-12-21T03:13:56.689Z,0.75
2016-12-21T03:14:18.425Z,0.79
2016-12-21T03:14:40.155Z,0.83
2016-12-21T03:15:01.898Z,0.87
2016-12-21T03:15:23.641Z,0.89
2016-12-21T03:15:45.389Z,0.89
2016-12-21T03:16:07.137Z,0.87
2016-12-21T03:16:28.895Z,0.96
2016-12-21T03:16:50.641Z,0.97
2016-12-21T03:17:12.377Z,0.83
2016-12-21T03:17:34.115Z,0.91
2016-12-21T03:17:55.864Z,0.93
2016-12-21T03:18:17.597Z,0.93
2016-12-21T03:18:40.339Z,0.88
2016-12-21T03:19:28.619Z,0.83
2016-12-21T03:19:50.360Z,0.87
2016-12-21T03:20:12.103Z,0.94
2016-12-21T03:20:33.857Z,0.89
2016-12-21T03:20:55.614Z,0.85
2016-12-21T03:21:17.348Z,0.86
2016-12-21T03:21:39.109Z,0.82
2016-12-21T03:22:00.873Z,0.86
2016-12-21T03:22:22.614Z,0.81
2016-12-21T03:22:44.346Z,0.84
2016-12-21T03:23:06.088Z,0.87
2016-12-21T03:23:27.824Z,0.87
2016-12-21T03:23:49.771Z,0.87
2016-12-21T03:24:11.402Z,0.89
2016-12-21T03:24:33.150Z,0.89
2016-12-21T03:24:54.886Z,0.86
2016-12-21T03:25:16.627Z,0.82
2016-12-21T03:25:38.365Z,0.89
2016-12-21T03:26:00.126Z,0.87
2016-12-21T03:26:21.891Z,0.90
2016-12-21T03:26:43.632Z,0.85
2016-12-21T03:27:05.354Z,0.82
2016-12-21T03:27:27.094Z,0.93
2016-12-21T03:27:48.828Z,0.89
2016-12-21T03:28:10.561Z,0.88
2016-12-21T03:28:32.296Z,0.99
2016-12-21T03:28:54.032Z,1.04
2016-12-21T03:29:15.762Z,1.03
2016-12-21T03:29:37.584Z,1.06
2016-12-21T03:29:59.320Z,1.15
2016-12-21T03:30:21.084Z,1.16
2016-12-21T03:30:42.826Z,1.15
2016-12-21T03:31:07.532Z,1.12
2016-12-21T03:31:29.283Z,1.22
2016-12-21T03:31:51.031Z,1.14
2016-12-21T03:32:12.762Z,1.12
2016-12-21T03:32:34.511Z,1.02
2016-12-21T03:32:57.241Z,0.90
2016-12-21T03:33:18.991Z,0.90
2016-12-21T03:33:40.719Z,0.87
2016-12-21T03:34:02.449Z,0.88
2016-12-21T03:34:24.183Z,0.91
2016-12-21T03:34:50.690Z,0.89
2016-12-21T03:35:14.643Z,0.89
2016-12-21T03:35:36.420Z,0.80
2016-12-21T03:35:58.172Z,0.86
2016-12-21T03:36:19.909Z,0.91
2016-12-21T03:36:41.642Z,0.92
2016-12-21T03:37:03.402Z,0.89
2016-12-21T03:37:25.127Z,0.88
2016-12-21T03:37:46.870Z,0.89
2016-12-21T03:38:08.656Z,0.92
2016-12-21T03:38:30.420Z,0.89
2016-12-21T03:38:52.178Z,0.88
2016-12-21T03:39:13.928Z,0.91
2016-12-21T03:39:35.672Z,0.81
2016-12-21T03:40:02.181Z,0.76
2016-12-21T03:40:23.922Z,0.85
2016-12-21T03:40:45.660Z,0.89
2016-12-21T03:41:07.405Z,0.97
2016-12-21T03:41:29.186Z,0.97
2016-12-21T03:41:50.944Z,0.89
2016-12-21T03:42:12.689Z,0.80
2016-12-21T03:42:34.432Z,0.76
2016-12-21T03:42:56.184Z,0.82
2016-12-21T03:43:17.922Z,0.82
2016-12-21T03:43:39.679Z,0.87
2016-12-21T03:44:01.414Z,0.90
2016-12-21T03:44:23.153Z,0.89
2016-12-21T03:44:44.885Z,0.90
2016-12-21T03:45:06.644Z,0.94
2016-12-21T03:45:33.140Z,0.98
2016-12-21T03:45:54.888Z,1.03
2016-12-21T03:46:16.619Z,1.08
2016-12-21T03:46:38.355Z,1.05
2016-12-21T03:47:31.367Z,1.08
2016-12-21T03:47:53.122Z,1.04
2016-12-21T03:48:14.856Z,1.06
2016-12-21T03:48:36.608Z,1.14
2016-12-21T03:48:58.356Z,1.02
2016-12-21T03:49:20.089Z,0.83
2016-12-21T03:49:46.589Z,0.70
2016-12-21T03:50:08.330Z,0.64
2016-12-21T03:50:30.067Z,0.70
2016-12-21T03:50:51.811Z,0.87
2016-12-21T03:51:13.542Z,0.87
2016-12-21T03:51:35.307Z,0.86
2016-12-21T03:51:57.057Z,0.88
2016-12-21T03:52:18.794Z,0.91
2016-12-21T03:52:40.563Z,0.94
2016-12-21T03:53:02.311Z,1.06
2016-12-21T03:53:24.047Z,1.09
2016-12-21T03:53:45.832Z,1.07
2016-12-21T03:54:07.560Z,1.10
2016-12-21T03:54:29.311Z,1.12
2016-12-21T03:54:51.050Z,1.05
2016-12-21T03:55:12.799Z,1.09
2016-12-21T03:55:34.637Z,1.09
2016-12-21T03:55:57.379Z,1.05
2016-12-21T03:56:19.116Z,1.00
2016-12-21T03:56:40.856Z,0.95
2016-12-21T03:57:02.597Z,1.02
2016-12-21T03:57:50.852Z,0.98
2016-12-21T03:58:12.600Z,1.02
2016-12-21T03:58:34.332Z,1.09
2016-12-21T03:58:56.062Z,1.10
2016-12-21T03:59:17.802Z,1.18
2016-12-21T03:59:39.540Z,1.21
2016-12-21T04:00:03.917Z,1.11
2016-12-21T04:00:25.661Z,1.03
2016-12-21T04:00:47.401Z,0.98
2016-12-21T04:01:09.151Z,1.04
2016-12-21T04:01:30.879Z,1.00
2016-12-21T04:01:52.639Z,1.06
2016-12-21T04:02:14.384Z,1.04
2016-12-21T04:02:40.883Z,1.13
2016-12-21T04:03:02.627Z,1.07
2016-12-21T04:03:51.886Z,1.17
2016-12-21T04:04:13.627Z,1.17
2016-12-21T04:04:35.356Z,1.12
2016-12-21T04:04:57.096Z,1.12
2016-12-21T04:05:23.606Z,1.13
2016-12-21T04:05:45.354Z,1.08
2016-12-21T04:06:07.087Z,1.03
2016-12-21T04:06:28.836Z,1.05
2016-12-21T04:06:50.572Z,1.09
2016-12-21T04:07:12.308Z,1.05
2016-12-21T04:07:34.051Z,1.08
2016-12-21T04:08:00.563Z,1.16
2016-12-21T04:08:22.294Z,1.20
2016-12-21T04:09:10.569Z,1.14
2016-12-21T04:09:32.333Z,1.11
2016-12-21T04:10:25.782Z,1.23
2016-12-21T04:10:47.526Z,1.15
2016-12-21T04:11:09.272Z,1.06
2016-12-21T04:11:31.007Z,0.98
2016-12-21T04:11:52.745Z,1.01
2016-12-21T04:12:14.492Z,1.03
2016-12-21T04:12:36.223Z,1.05
2016-12-21T04:12:57.967Z,1.07
2016-12-21T04:13:19.764Z,1.08
2016-12-21T04:13:41.505Z,1.11
2016-12-21T04:14:03.240Z,1.10
2016-12-21T04:14:29.753Z,1.08
2016-12-21T04:14:51.486Z,1.08
2016-12-21T04:15:13.220Z,1.20
2016-12-21T04:15:35.092Z,1.19
2016-12-21T04:15:56.839Z,1.09
2016-12-21T04:16:18.586Z,1.12
2016-12-21T04:16:40.320Z,1.08
2016-12-21T04:17:02.069Z,1.15
2016-12-21T04:17:50.316Z,1.06
2016-12-21T04:18:12.046Z,1.02
2016-12-21T04:18:33.785Z,1.06
2016-12-21T04:18:55.517Z,1.09
2016-12-21T04:19:17.265Z,0.99
2016-12-21T04:19:39.008Z,0.96
2016-12-21T04:20:00.745Z,0.90
2016-12-21T04:20:22.470Z,0.87
2016-12-21T04:20:44.222Z,0.89
2016-12-21T04:21:05.950Z,0.90
2016-12-21T04:21:27.701Z,0.90
2016-12-21T04:21:49.428Z,0.94
2016-12-21T04:22:11.182Z,0.94
2016-12-21T04:22:32.923Z,0.94
2016-12-21T04:22:54.661Z,0.99
2016-12-21T04:23:16.393Z,1.09
2016-12-21T04:23:38.144Z,1.07
2016-12-21T04:24:09.413Z,1.05
2016-12-21T04:24:31.151Z,1.07
2016-12-21T04:24:52.915Z,1.06
2016-12-21T04:25:14.666Z,1.07
2016-12-21T04:25:36.406Z,1.03
2016-12-21T04:25:58.144Z,1.07
2016-12-21T04:26:19.871Z,1.05
2016-12-21T04:26:41.602Z,1.05
2016-12-21T04:27:03.365Z,1.06
2016-12-21T04:27:25.101Z,1.06
2016-12-21T04:27:46.837Z,1.02
2016-12-21T04:28:08.574Z,1.05
2016-12-21T04:28:31.388Z,1.11
2016-12-21T04:28:53.119Z,1.08
2016-12-21T04:29:14.859Z,1.03
2016-12-21T04:29:39.222Z,1.00
2016-12-21T04:30:00.965Z,0.99
2016-12-21T04:30:22.706Z,1.06
2016-12-21T04:30:44.450Z,1.06
2016-12-21T04:31:06.186Z,1.00
2016-12-21T04:31:28.916Z,1.00
2016-12-21T04:31:56.433Z,1.00
2016-12-21T04:32:18.188Z,0.98
2016-12-21T04:32:39.940Z,0.97
2016-12-21T04:33:01.706Z,0.94
2016-12-21T04:33:23.441Z,0.95
2016-12-21T04:33:45.182Z,0.94
2016-12-21T04:34:07.908Z,0.96
2016-12-21T04:34:29.651Z,1.00
2016-12-21T04:34:51.413Z,1.00
2016-12-21T04:35:13.155Z,1.03
2016-12-21T04:35:34.886Z,1.03
2016-12-21T04:35:57.621Z,1.00
2016-12-21T04:36:19.366Z,1.03
2016-12-21T04:36:41.107Z,1.00
2016-12-21T04:37:02.869Z,0.99
2016-12-21T04:37:24.615Z,1.03
2016-12-21T04:37:46.361Z,1.05
2016-12-21T04:38:08.112Z,1.05
2016-12-21T04:38:29.876Z,1.07
2016-12-21T04:38:51.621Z,1.09
2016-12-21T04:39:13.365Z,1.05
2016-12-21T04:39:35.109Z,1.07
2016-12-21T04:39:56.866Z,1.11
2016-12-21T04:40:18.615Z,1.11
2016-12-21T04:40:40.344Z,1.10
2016-12-21T04:41:02.083Z,1.10
2016-12-21T04:41:23.825Z,1.09
2016-12-21T04:41:45.559Z,1.04
2016-12-21T04:42:07.302Z,1.04
2016-12-21T04:42:29.045Z,0.91
2016-12-21T04:42:50.800Z,0.89
2016-12-21T04:43:12.540Z,0.96
2016-12-21T04:43:34.281Z,1.03
2016-12-21T04:43:56.022Z,1.03
2016-12-21T04:44:17.767Z,1.01
2016-12-21T04:44:39.527Z,1.06
2016-12-21T04:45:01.259Z,1.04
2016-12-21T04:45:27.763Z,1.04
2016-12-21T04:45:49.507Z,1.03
2016-12-21T04:46:11.261Z,1.04
2016-12-21T04:46:32.996Z,1.05
2016-12-21T04:46:54.727Z,1.06
2016-12-21T04:47:17.460Z,1.13
2016-12-21T04:47:39.259Z,1.16
2016-12-21T04:48:01.006Z,1.21
2016-12-21T04:48:51.978Z,1.19
2016-12-21T04:49:54.563Z,1.05
2016-12-21T04:50:25.847Z,1.05
2016-12-21T04:51:19.856Z,1.03
2016-12-21T04:51:41.619Z,1.03
2016-12-21T04:52:06.010Z,1.00
2016-12-21T04:52:27.741Z,1.04
2016-12-21T04:52:55.244Z,1.08
2016-12-21T04:53:17.009Z,1.13
2016-12-21T04:53:41.408Z,1.09
2016-12-21T04:54:03.164Z,1.13
2016-12-21T04:54:27.518Z,1.09
2016-12-21T04:54:49.254Z,1.10
2016-12-21T04:55:43.309Z,1.06
2016-12-21T04:56:05.047Z,0.98
2016-12-21T04:56:26.783Z,1.01
2016-12-21T04:56:50.543Z,1.09
2016-12-21T04:57:17.053Z,1.11
2016-12-21T04:57:41.797Z,1.12
2016-12-21T04:58:09.130Z,1.17
2016-12-21T04:59:16.979Z,1.25
2016-12-21T04:59:38.706Z,1.26
2016-12-21T05:00:01.471Z,1.29
2016-12-21T05:00:24.205Z,1.24
2016-12-21T05:00:45.938Z,1.21
2016-12-21T05:01:17.230Z,1.17
2016-12-21T05:01:43.757Z,1.11
2016-12-21T05:02:10.278Z,1.17
2016-12-21T05:02:33.008Z,1.25
2016-12-21T05:02:54.794Z,1.29